Time;durP1;ratioP1;P1;durP2;ratioP2;P2;SDS_P1;SDS_P2;PMS_P1;PMS_P2;Temp;Humidity;BMP_temperature;BMP_pressure;BME280_temperature;BME280_humidity;BME280_pressure;Samples;Min_cycle;Max_cycle;Signal;HPM_P1;HPM_P2
2021/10/16 00:02:14;;;;;;;;;24.75;22.25;;;;;15.82;52.48;101636.59;5101460;27;45442;-62
2021/10/16 00:04:39;;;;;;;;;26.25;24.75;;;;;15.81;52.31;101632.16;5100995;27;46546;-62
2021/10/16 00:07:04;;;;;;;;;32.00;28.25;;;;;15.78;52.13;101635.75;5101527;27;45243;-62
2021/10/16 00:09:30;;;;;;;;;26.50;26.50;;;;;15.73;52.70;101627.03;5101526;27;45240;-63
2021/10/16 00:11:55;;;;;;;;;26.75;24.75;;;;;15.74;52.60;101628.78;5101341;27;45581;-63
2021/10/16 00:14:20;;;;;;;;;31.75;28.00;;;;;15.72;52.59;101627.94;5101249;27;46285;-62
2021/10/16 00:16:46;;;;;;;;;25.25;23.50;;;;;15.65;52.78;101627.19;5101197;27;45216;-63
2021/10/16 00:19:11;;;;;;;;;25.75;23.00;;;;;15.66;52.46;101636.91;5101458;27;45390;-63
2021/10/16 00:21:38;;;;;;;;;27.25;24.25;;;;;15.62;52.76;101629.91;5101309;27;45647;-63
2021/10/16 00:24:04;;;;;;;;;31.50;29.25;;;;;15.62;52.77;101637.84;5100961;27;46170;-63
2021/10/16 00:26:31;;;;;;;;;23.75;23.00;;;;;15.58;52.74;101629.13;5061774;28;45292;-62
2021/10/16 00:28:57;;;;;;;;;28.50;24.75;;;;;15.55;52.54;101631.81;5100036;27;45468;-62
2021/10/16 00:31:22;;;;;;;;;24.75;23.50;;;;;15.51;52.77;101635.44;5082735;27;45607;-62
2021/10/16 00:33:48;;;;;;;;;21.75;21.75;;;;;15.49;52.71;101628.44;5100922;27;45978;-62
2021/10/16 00:36:13;;;;;;;;;28.25;25.25;;;;;15.47;52.47;101632.88;5101093;27;45248;-63
2021/10/16 00:38:38;;;;;;;;;22.75;20.75;;;;;15.42;52.49;101627.66;5101259;27;45227;-63
2021/10/16 00:41:04;;;;;;;;;24.50;23.25;;;;;15.40;52.53;101635.66;5101026;27;45222;-63
2021/10/16 00:43:29;;;;;;;;;24.50;22.50;;;;;15.35;52.37;101623.41;5100757;27;45287;-63
2021/10/16 00:45:54;;;;;;;;;24.75;23.50;;;;;15.34;52.79;101629.63;5101004;27;45216;-62
2021/10/16 00:48:20;;;;;;;;;25.50;21.00;;;;;15.31;52.83;101633.19;5082485;27;45240;-62
2021/10/16 00:50:45;;;;;;;;;27.00;24.00;;;;;15.24;52.65;101623.63;5100810;27;45236;-62
2021/10/16 00:53:12;;;;;;;;;25.00;24.00;;;;;15.25;52.48;101628.88;5082373;27;46511;-62
2021/10/16 00:55:39;;;;;;;;;21.50;17.50;;;;;15.23;52.61;101632.47;5100763;27;45365;-62
2021/10/16 00:58:04;;;;;;;;;20.00;19.50;;;;;15.19;52.66;101623.69;5100583;27;45294;-62
2021/10/16 01:00:30;;;;;;;;;21.00;20.25;;;;;15.17;52.72;101636.13;5078878;28;45968;-62
2021/10/16 01:02:56;;;;;;;;;20.00;16.75;;;;;15.14;52.90;101638.81;5092992;27;45252;-62
2021/10/16 01:05:21;;;;;;;;;21.25;18.75;;;;;15.09;52.37;101624.78;5100478;27;45423;-62
2021/10/16 01:07:46;;;;;;;;;20.25;20.25;;;;;15.08;52.82;101625.69;5100831;27;45521;-62
2021/10/16 01:10:13;;;;;;;;;18.00;17.50;;;;;15.05;52.92;101618.66;5100497;27;45318;-62
2021/10/16 01:12:40;;;;;;;;;20.50;18.75;;;;;15.03;52.46;101631.09;5100064;27;47058;-62
2021/10/16 01:15:08;;;;;;;;;19.50;15.50;;;;;15.00;52.53;101627.63;5082070;27;45726;-62
2021/10/16 01:17:36;;;;;;;;;16.00;14.75;;;;;14.97;52.61;101619.72;5092073;27;45326;-62
2021/10/16 01:20:09;;;;;;;;;16.00;14.25;;;;;14.94;52.88;101624.19;5100073;27;45455;-62
2021/10/16 01:22:40;;;;;;;;;17.00;16.75;;;;;14.91;52.43;101626.88;5100405;27;46016;-62
2021/10/16 01:25:10;;;;;;;;;21.75;20.00;;;;;14.89;52.42;101625.16;5078597;28;45767;-62
2021/10/16 01:27:38;;;;;;;;;17.00;14.50;;;;;14.85;52.92;101618.19;5095397;27;45418;-62
2021/10/16 01:30:06;;;;;;;;;17.25;17.00;;;;;14.83;52.56;101615.56;5100376;27;45503;-62
2021/10/16 01:32:33;;;;;;;;;16.75;16.25;;;;;14.81;52.97;101613.84;5100161;27;46163;-62
2021/10/16 01:34:58;;;;;;;;;14.25;12.75;;;;;14.78;52.53;101606.84;5081742;27;45544;-62
2021/10/16 01:37:23;;;;;;;;;15.25;14.25;;;;;14.75;52.56;101605.13;5098217;27;45435;-62
2021/10/16 01:39:49;;;;;;;;;16.00;15.50;;;;;14.71;52.76;101599.91;5085737;27;45350;-62
2021/10/16 01:42:14;;;;;;;;;14.25;13.00;;;;;14.70;52.71;101608.75;5103741;27;45385;-62
2021/10/16 01:44:43;;;;;;;;;20.25;16.75;;;;;14.66;52.51;101607.91;5103797;27;45366;-62
2021/10/16 01:47:09;;;;;;;;;14.00;11.00;;;;;14.63;52.38;101598.22;5104052;27;45452;-62
2021/10/16 01:49:36;;;;;;;;;17.50;13.75;;;;;14.62;52.94;101599.13;5103655;27;45280;-62
2021/10/16 01:52:02;;;;;;;;;14.75;12.75;;;;;14.60;52.54;101602.69;5103641;27;47206;-62
2021/10/16 01:54:28;;;;;;;;;13.75;13.00;;;;;14.57;52.81;101592.19;5085340;27;46484;-62
2021/10/16 01:56:53;;;;;;;;;14.75;14.25;;;;;14.54;52.59;101589.56;5103650;27;45315;-62
2021/10/16 01:59:21;;;;;;;;;12.25;12.00;;;;;14.52;52.69;101592.25;5103538;27;45443;-62
2021/10/16 02:01:46;;;;;;;;;16.50;13.75;;;;;14.50;53.19;101594.03;5085046;27;47231;-62
2021/10/16 02:04:13;;;;;;;;;13.25;13.25;;;;;14.47;52.67;101589.69;5103297;27;45347;-62
2021/10/16 02:06:39;;;;;;;;;14.50;14.50;;;;;14.43;52.91;101584.50;5103590;27;45445;-62
2021/10/16 02:09:05;;;;;;;;;19.50;15.00;;;;;14.42;53.16;101588.88;5103489;27;45298;-62
2021/10/16 02:11:31;;;;;;;;;16.25;14.00;;;;;14.41;52.69;101587.13;5103233;27;46290;-62
2021/10/16 02:13:57;;;;;;;;;11.50;11.50;;;;;14.38;52.92;101589.84;5103401;27;45216;-62
2021/10/16 02:16:23;;;;;;;;;16.00;14.25;;;;;14.36;53.09;101586.34;5103388;27;45221;-62
2021/10/16 02:18:48;;;;;;;;;15.75;14.00;;;;;14.32;52.76;101586.44;5103115;27;45347;-62
2021/10/16 02:21:14;;;;;;;;;14.25;13.50;;;;;14.32;52.66;101586.44;5084695;27;48172;-62
2021/10/16 02:23:39;;;;;;;;;13.25;13.25;;;;;14.29;53.09;101579.44;5103267;27;45421;-63
2021/10/16 02:26:05;;;;;;;;;12.75;10.75;;;;;14.27;52.69;101584.72;5103236;27;45290;-62
2021/10/16 02:28:30;;;;;;;;;14.25;13.00;;;;;14.25;52.71;101583.00;5103075;27;45330;-62
2021/10/16 02:30:55;;;;;;;;;14.00;12.75;;;;;14.23;52.89;101582.19;5103034;27;45498;-62
2021/10/16 02:33:21;;;;;;;;;16.25;14.00;;;;;14.20;52.79;101580.47;5102971;27;45437;-62
2021/10/16 02:35:46;;;;;;;;;13.25;13.25;;;;;14.18;53.00;101582.25;5084809;27;45647;-62
2021/10/16 02:38:11;;;;;;;;;14.00;11.00;;;;;14.16;52.74;101581.38;5103338;27;45266;-62
2021/10/16 02:40:37;;;;;;;;;15.50;14.25;;;;;14.14;52.94;101585.84;5102781;27;46221;-62
2021/10/16 02:43:04;;;;;;;;;13.75;12.75;;;;;14.12;53.15;101583.22;5084552;27;45381;-62
2021/10/16 02:45:30;;;;;;;;;13.75;12.50;;;;;14.10;53.22;101577.06;5102898;27;45610;-63
2021/10/16 02:47:55;;;;;;;;;15.50;15.50;;;;;14.06;52.71;101572.75;5103014;27;45502;-63
2021/10/16 02:50:20;;;;;;;;;15.00;13.00;;;;;14.05;53.03;101583.31;5101707;27;46112;-62
2021/10/16 02:52:46;;;;;;;;;13.25;12.25;;;;;14.02;53.10;101581.59;5102988;27;45277;-62
2021/10/16 02:55:11;;;;;;;;;12.25;11.75;;;;;14.01;52.93;101581.63;5102731;27;45409;-62
2021/10/16 02:57:36;;;;;;;;;15.25;12.50;;;;;13.98;53.30;101579.91;5102714;27;45205;-62
2021/10/16 03:00:04;;;;;;;;;13.50;12.75;;;;;13.96;52.99;101577.28;5102655;27;45386;-62
2021/10/16 03:02:29;;;;;;;;;15.75;15.75;;;;;13.92;52.99;101575.59;5102598;27;45379;-62
2021/10/16 03:04:54;;;;;;;;;16.25;15.50;;;;;13.92;53.06;101578.25;5084051;27;45535;-62
2021/10/16 03:07:20;;;;;;;;;15.25;12.50;;;;;13.90;53.16;101585.31;5102758;27;45375;-62
2021/10/16 03:09:45;;;;;;;;;14.75;12.50;;;;;13.86;53.33;101580.97;5102323;27;45472;-62
2021/10/16 03:12:11;;;;;;;;;19.25;15.75;;;;;13.84;52.88;101582.75;5102523;27;45273;-62
2021/10/16 03:14:36;;;;;;;;;16.50;13.00;;;;;13.84;53.13;101582.75;5102480;27;45896;-62
2021/10/16 03:17:01;;;;;;;;;16.00;14.00;;;;;13.80;53.10;101574.00;5102695;27;45241;-62
2021/10/16 03:19:27;;;;;;;;;15.25;13.75;;;;;13.79;53.16;101574.03;5101943;27;45446;-62
2021/10/16 03:21:52;;;;;;;;;16.50;12.50;;;;;13.75;53.33;101569.69;5102537;27;45292;-62
2021/10/16 03:24:18;;;;;;;;;14.75;11.50;;;;;13.73;53.36;101576.75;5102250;27;45247;-62
2021/10/16 03:26:43;;;;;;;;;13.50;12.75;;;;;13.72;53.28;101575.88;5102561;27;45244;-62
2021/10/16 03:29:08;;;;;;;;;13.25;13.25;;;;;13.68;53.27;101573.31;5101902;27;45169;-62
2021/10/16 03:31:34;;;;;;;;;16.00;14.00;;;;;13.68;53.45;101570.66;5102383;27;45212;-62
2021/10/16 03:34:00;;;;;;;;;12.25;12.25;;;;;13.66;53.18;101568.03;5101949;27;45331;-62
2021/10/16 03:36:26;;;;;;;;;14.25;13.75;;;;;13.63;53.42;101568.97;5102378;27;45209;-62
2021/10/16 03:38:51;;;;;;;;;14.25;13.00;;;;;13.62;53.58;101580.41;5101694;27;46923;-62
2021/10/16 03:41:16;;;;;;;;;11.50;11.50;;;;;13.59;53.60;101569.88;5102290;27;45209;-62
2021/10/16 03:43:42;;;;;;;;;12.25;11.50;;;;;13.59;53.14;101574.31;5083362;27;45417;-62
2021/10/16 03:46:07;;;;;;;;;16.00;15.00;;;;;13.55;53.22;101573.47;5102208;27;45403;-62
2021/10/16 03:48:32;;;;;;;;;14.00;13.50;;;;;13.55;53.24;101575.25;5101566;27;46182;-62
2021/10/16 03:50:58;;;;;;;;;15.50;14.50;;;;;13.50;53.24;101567.38;5102180;27;45590;-62
2021/10/16 03:53:23;;;;;;;;;15.25;12.50;;;;;13.51;53.14;101569.13;5101885;27;45578;-62
2021/10/16 03:55:48;;;;;;;;;13.50;12.00;;;;;13.49;53.58;101568.25;5083485;27;45580;-62
2021/10/16 03:58:14;;;;;;;;;14.50;14.00;;;;;13.46;53.47;101569.19;5101442;27;45338;-62
2021/10/16 04:00:39;;;;;;;;;16.25;12.00;;;;;13.44;53.61;101565.66;5101527;27;45307;-62
2021/10/16 04:03:06;;;;;;;;;14.75;14.25;;;;;13.43;53.42;101568.34;5100814;27;45751;-62
2021/10/16 04:05:33;;;;;;;;;15.50;14.00;;;;;13.42;53.37;101574.50;5101785;27;45489;-62
2021/10/16 04:07:58;;;;;;;;;12.25;11.00;;;;;13.37;53.36;101571.03;5083261;27;46170;-62
2021/10/16 04:10:24;;;;;;;;;15.50;12.50;;;;;13.39;53.72;101574.56;5101365;27;45307;-62
2021/10/16 04:12:49;;;;;;;;;12.00;12.00;;;;;13.37;53.30;101571.03;5101602;27;45304;-62
2021/10/16 04:15:14;;;;;;;;;13.25;13.00;;;;;13.36;53.54;101579.81;5101459;27;45211;-62
2021/10/16 04:17:40;;;;;;;;;13.00;11.00;;;;;13.33;53.36;101578.09;5101461;27;45146;-62
2021/10/16 04:20:06;;;;;;;;;16.50;14.00;;;;;13.33;53.64;101576.34;5101069;27;45229;-62
2021/10/16 04:22:31;;;;;;;;;14.00;13.50;;;;;13.31;53.50;101578.13;5101731;27;45225;-62
2021/10/16 04:24:57;;;;;;;;;10.00;10.00;;;;;13.29;53.82;101579.03;5101229;27;45427;-62
2021/10/16 04:27:24;;;;;;;;;16.25;14.50;;;;;13.28;53.70;101583.47;5101021;27;45186;-62
2021/10/16 04:29:50;;;;;;;;;14.50;14.25;;;;;13.27;53.94;101581.69;5082771;27;45417;-62
2021/10/16 04:32:16;;;;;;;;;16.50;14.00;;;;;13.26;53.97;101590.50;5079848;27;45434;-62
2021/10/16 04:34:42;;;;;;;;;34.75;29.50;;;;;13.23;53.58;101587.91;5100834;27;45414;-62
2021/10/16 04:37:08;;;;;;;;;19.25;16.25;;;;;13.23;53.56;101582.63;5079782;27;47234;-62
2021/10/16 04:39:33;;;;;;;;;12.75;12.50;;;;;13.19;53.56;101583.53;5101469;27;45438;-62
2021/10/16 04:41:59;;;;;;;;;17.00;16.00;;;;;13.19;53.59;101590.59;5100960;27;45154;-62
2021/10/16 04:44:25;;;;;;;;;14.25;14.00;;;;;13.15;53.91;101587.13;5100860;27;45579;-62
2021/10/16 04:46:50;;;;;;;;;12.25;12.25;;;;;13.16;54.03;101589.72;5100859;27;46173;-62
2021/10/16 04:49:16;;;;;;;;;15.00;13.50;;;;;13.12;53.76;101581.91;5100794;27;45333;-62
2021/10/16 04:51:42;;;;;;;;;16.00;13.50;;;;;13.14;53.87;101591.53;5100920;27;45363;-62
2021/10/16 04:54:08;;;;;;;;;15.00;13.75;;;;;13.12;53.97;101587.16;5100928;27;45399;-62
2021/10/16 04:56:33;;;;;;;;;20.25;15.00;;;;;13.12;54.04;101588.03;5100730;27;46167;-62
2021/10/16 04:58:58;;;;;;;;;12.25;12.25;;;;;13.09;53.91;101582.78;5100635;27;45328;-62
2021/10/16 05:01:24;;;;;;;;;13.50;13.00;;;;;13.11;53.97;101590.69;5100951;27;45519;-62
2021/10/16 05:03:49;;;;;;;;;13.50;12.50;;;;;13.10;53.76;101603.00;5100204;27;45609;-63
2021/10/16 05:06:15;;;;;;;;;14.00;12.50;;;;;13.08;53.81;101590.72;5100988;27;46124;-63
2021/10/16 05:08:41;;;;;;;;;15.25;14.00;;;;;13.08;54.17;101593.34;5082320;27;45386;-62
2021/10/16 05:11:06;;;;;;;;;20.75;17.25;;;;;13.05;53.74;101590.75;5100892;27;45361;-62
2021/10/16 05:13:31;;;;;;;;;12.50;11.00;;;;;13.08;53.78;101603.91;5104210;27;45493;-62
2021/10/16 05:15:57;;;;;;;;;12.75;12.75;;;;;13.06;53.95;101600.44;5107505;27;46281;-63
2021/10/16 05:18:23;;;;;;;;;13.00;13.00;;;;;13.07;54.17;101615.34;5088792;27;45311;-62
2021/10/16 05:20:50;;;;;;;;;12.75;11.75;;;;;13.08;54.18;101614.47;5098957;27;45307;-62
2021/10/16 05:23:16;;;;;;;;;14.25;12.75;;;;;13.06;54.10;101611.84;5107144;27;45510;-62
2021/10/16 05:25:41;;;;;;;;;15.75;14.00;;;;;13.07;53.92;101616.25;5088995;27;45258;-63
2021/10/16 05:28:06;;;;;;;;;17.75;14.75;;;;;13.08;53.99;101620.63;5106922;27;45161;-64
2021/10/16 05:30:32;;;;;;;;;16.00;14.75;;;;;13.09;54.07;101621.50;5107389;27;45427;-62
2021/10/16 05:32:57;;;;;;;;;16.75;15.00;;;;;13.09;54.04;101618.84;5107272;27;45225;-63
2021/10/16 05:35:22;;;;;;;;;18.50;16.50;;;;;13.10;53.96;101621.47;5088532;27;47088;-63
2021/10/16 05:37:48;;;;;;;;;19.00;15.25;;;;;13.11;54.24;101617.94;5107028;27;45405;-62
2021/10/16 05:40:13;;;;;;;;;17.25;14.00;;;;;13.13;54.01;101612.66;5107333;27;45311;-62
2021/10/16 05:42:39;;;;;;;;;14.00;12.75;;;;;13.13;54.39;101620.56;5106907;27;45419;-62
2021/10/16 05:45:05;;;;;;;;;18.75;17.75;;;;;13.14;54.05;101611.75;5106869;27;46196;-63
2021/10/16 05:47:31;;;;;;;;;24.25;21.25;;;;;13.15;53.94;101613.50;5106602;27;45278;-63
2021/10/16 05:49:56;;;;;;;;;69.25;54.75;;;;;13.15;54.04;101618.78;5085062;28;45339;-63
2021/10/16 05:52:22;;;;;;;;;26.50;20.75;;;;;13.16;54.27;101616.13;5105425;27;45286;-64
2021/10/16 05:54:48;;;;;;;;;19.75;18.00;;;;;13.17;54.14;101617.88;5106827;27;45978;-63
2021/10/16 05:57:13;;;;;;;;;20.75;15.75;;;;;13.16;54.26;101616.13;5106702;27;45429;-63
2021/10/16 05:59:38;;;;;;;;;20.25;17.25;;;;;13.18;54.04;101626.66;5106794;27;45236;-62
2021/10/16 06:02:04;;;;;;;;;15.75;14.75;;;;;13.20;54.44;101621.38;5106720;27;45508;-63
2021/10/16 06:04:29;;;;;;;;;19.00;16.00;;;;;13.20;54.14;101621.38;5106462;27;45376;-63
2021/10/16 06:06:55;;;;;;;;;13.25;12.50;;;;;13.20;54.16;101621.38;5106719;27;45218;-63
2021/10/16 06:09:20;;;;;;;;;13.25;12.75;;;;;13.20;53.97;101622.25;5106817;27;45636;-63
2021/10/16 06:11:45;;;;;;;;;17.25;16.25;;;;;13.21;54.12;101624.00;5106586;27;45456;-63
2021/10/16 06:14:11;;;;;;;;;14.75;14.25;;;;;13.21;54.16;101624.00;5106472;27;45224;-63
2021/10/16 06:16:36;;;;;;;;;15.25;14.00;;;;;13.21;54.35;101616.09;5106500;27;45260;-63
2021/10/16 06:19:04;;;;;;;;;16.75;14.25;;;;;13.23;54.08;101624.88;5106622;27;45316;-62
2021/10/16 06:21:31;;;;;;;;;11.25;10.75;;;;;13.22;54.14;101619.59;5106351;27;45465;-63
2021/10/16 06:23:56;;;;;;;;;15.00;12.75;;;;;13.23;54.38;101616.06;5105133;27;45424;-63
2021/10/16 06:26:22;;;;;;;;;11.00;10.50;;;;;13.24;54.35;101610.75;5102387;27;45347;-63
2021/10/16 06:28:47;;;;;;;;;15.50;14.50;;;;;13.24;54.02;101613.41;5067081;27;45466;-63
2021/10/16 06:31:12;;;;;;;;;16.00;13.00;;;;;13.25;54.09;101615.16;5102953;27;45310;-63
2021/10/16 06:33:38;;;;;;;;;13.50;13.25;;;;;13.22;54.22;101601.09;5102695;27;45632;-63
2021/10/16 06:36:03;;;;;;;;;15.50;13.50;;;;;13.26;54.15;101616.03;5102791;27;45160;-64
2021/10/16 06:38:29;;;;;;;;;17.00;13.25;;;;;13.26;54.18;101622.19;5103267;27;45249;-63
2021/10/16 06:40:54;;;;;;;;;17.00;13.50;;;;;13.28;54.23;101632.72;5102393;27;45481;-63
2021/10/16 06:43:20;;;;;;;;;16.00;15.00;;;;;13.29;54.28;101642.38;5102341;27;46087;-63
2021/10/16 06:45:45;;;;;;;;;14.00;12.75;;;;;13.29;54.40;101637.97;5084413;27;45250;-63
2021/10/16 06:48:11;;;;;;;;;15.00;13.50;;;;;13.28;54.23;101633.59;5102932;27;45366;-63
2021/10/16 06:50:36;;;;;;;;;15.50;15.25;;;;;13.29;54.44;101635.34;5102606;27;45295;-63
2021/10/16 06:53:01;;;;;;;;;13.50;13.00;;;;;13.32;54.07;101642.38;5102754;27;46046;-63
2021/10/16 06:55:27;;;;;;;;;16.00;14.00;;;;;13.35;54.55;101638.81;5102462;27;45376;-62
2021/10/16 06:57:52;;;;;;;;;14.00;12.50;;;;;13.37;54.24;101639.66;5102509;27;45399;-62
2021/10/16 07:00:18;;;;;;;;;11.25;11.00;;;;;13.33;54.50;101638.81;5084132;27;45188;-63
2021/10/16 07:02:43;;;;;;;;;12.75;12.75;;;;;13.42;54.30;101640.50;5102423;27;46088;-64
2021/10/16 07:05:09;;;;;;;;;15.50;12.50;;;;;13.44;54.49;101644.00;5083445;27;45926;-63
2021/10/16 07:07:34;;;;;;;;;17.00;14.00;;;;;13.45;53.95;101654.56;5091410;27;45385;-62
2021/10/16 07:09:59;;;;;;;;;17.75;16.00;;;;;13.47;54.44;101646.59;5102053;27;45457;-63
2021/10/16 07:12:27;;;;;;;;;15.00;13.25;;;;;13.47;54.46;101641.31;5102235;27;46227;-63
2021/10/16 07:14:52;;;;;;;;;17.00;16.50;;;;;13.50;54.65;101641.31;5084295;27;45491;-63
2021/10/16 07:17:18;;;;;;;;;15.25;14.75;;;;;13.51;54.19;101637.78;5102566;27;45460;-63
2021/10/16 07:19:43;;;;;;;;;14.50;14.00;;;;;13.55;54.40;101644.75;5083576;27;45296;-63
2021/10/16 07:22:08;;;;;;;;;16.25;13.00;;;;;13.58;54.55;101644.72;5102204;27;45232;-62
2021/10/16 07:24:34;;;;;;;;;16.00;14.00;;;;;13.56;54.16;101646.50;5101889;27;45185;-63
2021/10/16 07:27:01;;;;;;;;;17.00;15.25;;;;;13.61;54.09;101654.34;5102097;27;45525;-62
2021/10/16 07:29:26;;;;;;;;;17.25;15.25;;;;;13.64;54.37;101665.75;5101884;27;45240;-63
2021/10/16 07:31:53;;;;;;;;;17.00;15.00;;;;;13.67;54.41;101651.66;5083466;27;48520;-65
2021/10/16 07:34:19;;;;;;;;;17.50;15.50;;;;;13.67;54.44;101656.06;5101505;27;45663;-67
2021/10/16 07:36:46;;;;;;;;;15.50;14.25;;;;;13.72;54.34;101662.16;5101394;27;45311;-64
2021/10/16 07:39:12;;;;;;;;;17.75;14.50;;;;;13.73;54.50;101662.13;5101622;27;45490;-64
2021/10/16 07:41:38;;;;;;;;;14.75;13.00;;;;;13.78;54.19;101675.28;5101721;27;45333;-66
2021/10/16 07:44:05;;;;;;;;;18.25;15.75;;;;;13.81;53.97;101675.25;5101301;27;45198;-66
2021/10/16 07:46:31;;;;;;;;;15.00;14.50;;;;;13.85;53.90;101674.31;5101728;27;45302;-69
2021/10/16 07:48:57;;;;;;;;;16.00;16.00;;;;;13.87;54.14;101675.16;5101420;27;45302;-70
2021/10/16 07:51:22;;;;;;;;;17.00;17.00;;;;;13.92;54.09;101676.00;5101664;27;46079;-62
2021/10/16 07:53:48;;;;;;;;;21.75;18.50;;;;;13.92;54.07;101670.72;5083067;27;45736;-68
2021/10/16 07:56:13;;;;;;;;;20.75;19.75;;;;;13.98;54.09;101675.91;5101894;27;45517;-59
2021/10/16 07:58:40;;;;;;;;;17.00;16.50;;;;;14.04;54.38;101674.09;5101303;27;45430;-63
2021/10/16 08:01:08;;;;;;;;;13.75;13.75;;;;;14.09;54.03;101674.91;5101669;27;46758;-60
2021/10/16 08:03:35;;;;;;;;;20.75;19.25;;;;;14.12;54.00;101673.09;5100942;27;45359;-58
2021/10/16 08:06:00;;;;;;;;;18.25;18.25;;;;;14.18;53.74;101671.25;5101515;27;45501;-53
2021/10/16 08:08:27;;;;;;;;;18.50;15.75;;;;;14.22;54.17;101678.22;5101202;27;45434;-53
2021/10/16 08:10:53;;;;;;;;;20.50;18.50;;;;;14.23;54.00;101672.91;5083002;27;46994;-59
2021/10/16 08:13:18;;;;;;;;;19.00;19.00;;;;;14.29;53.88;101674.59;5101087;27;45431;-48
2021/10/16 08:15:44;;;;;;;;;25.25;22.50;;;;;14.34;53.94;101674.53;5101451;27;45326;-51
2021/10/16 08:18:09;;;;;;;;;16.75;14.00;;;;;14.39;53.79;101672.69;5100970;27;45427;-54
2021/10/16 08:20:34;;;;;;;;;16.25;15.25;;;;;14.43;53.93;101671.75;5101205;27;45336;-50
2021/10/16 08:23:03;;;;;;;;;19.50;17.25;;;;;14.47;54.27;101670.81;5101029;27;45526;-50
2021/10/16 08:25:28;;;;;;;;;24.00;15.75;;;;;14.51;54.11;101664.56;5101124;27;45340;-57
2021/10/16 08:27:54;;;;;;;;;20.00;17.00;;;;;14.57;54.29;101667.09;5100927;27;45232;-58
2021/10/16 08:30:19;;;;;;;;;18.25;16.50;;;;;14.61;53.77;101662.63;5098637;27;47041;-58
2021/10/16 08:32:44;;;;;;;;;20.25;15.75;;;;;14.67;53.96;101667.00;5100872;27;45211;-58
2021/10/16 08:35:10;;;;;;;;;19.00;18.50;;;;;14.71;54.30;101664.25;5097892;27;45332;-51
2021/10/16 08:37:36;;;;;;;;;18.25;15.00;;;;;14.77;53.91;101668.59;5100458;27;45304;-47
2021/10/16 08:40:04;;;;;;;;;20.75;19.00;;;;;14.82;54.17;101672.03;5101026;27;46649;-59
2021/10/16 08:42:30;;;;;;;;;14.75;14.50;;;;;14.87;53.70;101662.25;5081993;27;45393;-59
2021/10/16 08:44:59;;;;;;;;;17.75;15.75;;;;;14.91;53.82;101671.84;5100705;27;45394;-59
2021/10/16 08:47:35;;;;;;;;;16.50;15.00;;;;;14.99;53.75;101673.50;5099862;27;45513;-59
2021/10/16 08:50:04;;;;;;;;;20.00;18.00;;;;;15.05;53.71;101676.91;5081979;27;45635;-59
2021/10/16 08:52:29;;;;;;;;;18.75;17.50;;;;;15.13;54.33;101673.25;5100005;27;45415;-60
2021/10/16 08:54:58;;;;;;;;;18.75;17.25;;;;;15.19;53.98;101683.72;5100499;27;45361;-54
2021/10/16 08:57:29;;;;;;;;;17.25;16.00;;;;;15.28;53.49;101680.91;5100214;27;45299;-58
2021/10/16 08:59:54;;;;;;;;;18.00;15.75;;;;;15.34;54.00;101678.13;5097915;27;45466;-52
2021/10/16 09:02:20;;;;;;;;;19.00;15.50;;;;;15.43;53.87;101683.28;5100381;27;45469;-52
2021/10/16 09:04:45;;;;;;;;;15.25;14.75;;;;;15.52;53.92;101676.94;5100075;27;45418;-58
2021/10/16 09:07:22;;;;;;;;;47.50;36.50;;;;;15.64;53.93;101680.22;5100191;27;45369;-58
2021/10/16 09:09:49;;;;;;;;;18.25;17.25;;;;;15.72;53.70;101684.47;5099873;27;46059;-58
2021/10/16 09:12:15;;;;;;;;;16.00;14.50;;;;;15.84;53.57;101687.81;5100246;27;45155;-58
2021/10/16 09:14:49;;;;;;;;;13.50;11.75;;;;;15.93;53.21;101690.25;5099064;27;45354;-58
2021/10/16 09:17:17;;;;;;;;;12.00;11.00;;;;;16.04;53.50;101695.31;5100446;27;45622;-58
2021/10/16 09:19:43;;;;;;;;;14.00;12.00;;;;;16.15;53.39;101689.75;5099575;27;45379;-58
2021/10/16 09:22:09;;;;;;;;;10.75;8.75;;;;;16.25;53.29;101688.63;5100172;27;45509;-66
2021/10/16 09:24:39;;;;;;;;;12.25;8.00;;;;;16.37;53.39;101695.47;5081528;27;45371;-66
2021/10/16 09:27:09;;;;;;;;;9.50;9.50;;;;;16.49;53.29;101686.31;5100040;27;45406;-67
2021/10/16 09:29:38;;;;;;;;;10.50;9.25;;;;;16.60;53.53;101689.59;5099872;27;45335;-66
2021/10/16 09:32:10;;;;;;;;;10.00;8.75;;;;;16.72;53.21;101683.13;5100349;27;45318;-66
2021/10/16 09:34:41;;;;;;;;;7.75;7.75;;;;;16.84;53.01;101681.94;5099906;27;45323;-65
2021/10/16 09:37:17;;;;;;;;;11.00;9.25;;;;;16.98;53.29;101685.16;5100207;27;45216;-67
2021/10/16 09:39:55;;;;;;;;;11.50;11.50;;;;;17.13;53.25;101686.53;5100157;27;46203;-66
2021/10/16 09:42:29;;;;;;;;;12.75;10.00;;;;;17.28;52.97;101689.69;5099878;27;45405;-66
2021/10/16 09:44:57;;;;;;;;;9.25;9.00;;;;;17.42;53.18;101690.19;5098258;27;45481;-65
2021/10/16 09:47:22;;;;;;;;;12.75;11.00;;;;;17.50;53.24;101674.88;5093314;27;45470;-65
2021/10/16 09:50:02;;;;;;;;;11.00;11.00;;;;;17.73;52.92;101694.59;5097652;27;46236;-67
2021/10/16 09:52:38;;;;;;;;;15.25;13.25;;;;;17.90;52.90;101686.16;5091378;27;45362;-67
2021/10/16 09:55:06;;;;;;;;;11.50;10.25;;;;;18.08;52.52;101674.09;5090615;27;45400;-65
2021/10/16 09:57:32;;;;;;;;;10.25;10.25;;;;;18.25;52.54;101686.91;5086296;27;45519;-65
2021/10/16 10:00:02;;;;;;;;;10.50;9.25;;;;;18.45;52.76;101685.38;5089470;27;46147;-64
2021/10/16 10:02:31;;;;;;;;;12.75;10.75;;;;;18.62;52.48;101684.84;5084641;27;45175;-66
2021/10/16 10:04:58;;;;;;;;;8.00;7.50;;;;;18.78;52.46;101688.72;5091219;27;45318;-66
2021/10/16 10:07:25;;;;;;;;;10.50;9.75;;;;;18.90;52.49;101678.56;5084197;27;45425;-69
2021/10/16 10:09:51;;;;;;;;;8.00;8.00;;;;;19.07;51.99;101678.00;5095393;27;46654;-65
2021/10/16 10:12:18;;;;;;;;;10.00;9.50;;;;;19.20;52.31;101678.47;5082623;27;45276;-66
2021/10/16 10:14:46;;;;;;;;;8.50;8.50;;;;;19.33;51.53;101677.09;5082691;28;45355;-65
2021/10/16 10:17:13;;;;;;;;;10.25;9.50;;;;;19.44;51.74;101674.91;5083953;27;45638;-66
2021/10/16 10:19:42;;;;;;;;;11.00;9.75;;;;;19.57;51.71;101680.66;5090985;27;46325;-66
2021/10/16 10:22:16;;;;;;;;;13.25;7.00;;;;;19.68;51.13;101680.25;5082702;28;45379;-66
2021/10/16 10:24:47;;;;;;;;;9.00;7.00;;;;;19.80;51.23;101682.44;5083339;27;45307;-66
2021/10/16 10:27:14;;;;;;;;;9.00;8.00;;;;;19.89;50.62;101675.06;5088025;27;45302;-66
2021/10/16 10:29:43;;;;;;;;;8.75;7.00;;;;;19.97;50.45;101673.84;5099792;27;45189;-67
2021/10/16 10:32:26;;;;;;;;;7.25;7.00;;;;;20.07;50.64;101673.47;5099730;27;45367;-66
2021/10/16 10:34:52;;;;;;;;;7.00;6.25;;;;;20.17;50.79;101671.31;5098645;27;45386;-65
2021/10/16 10:37:17;;;;;;;;;6.25;6.25;;;;;20.25;50.75;101675.41;5098506;27;45227;-67
2021/10/16 10:39:54;;;;;;;;;10.00;7.00;;;;;20.34;50.24;101671.50;5083151;27;48180;-66
2021/10/16 10:42:25;;;;;;;;;6.00;4.25;;;;;20.42;50.00;101671.19;5099384;27;45256;-67
2021/10/16 10:44:53;;;;;;;;;6.75;6.50;;;;;20.50;49.84;101676.22;5099813;27;45490;-66
2021/10/16 10:47:25;;;;;;;;;4.00;4.00;;;;;20.58;50.31;101671.44;5099219;27;45352;-65
2021/10/16 10:49:55;;;;;;;;;7.75;5.25;;;;;20.66;50.10;101669.31;5095474;27;45425;-65
2021/10/16 10:52:23;;;;;;;;;5.25;5.00;;;;;20.72;49.48;101660.22;5093477;27;45293;-65
2021/10/16 10:55:12;;;;;;;;;5.75;5.00;;;;;20.82;49.56;101666.00;5093634;27;45328;-65
2021/10/16 10:57:48;;;;;;;;;5.25;5.25;;;;;20.89;49.15;101665.69;5091091;27;45478;-64
2021/10/16 11:00:37;;;;;;;;;5.00;5.00;;;;;20.99;49.52;101666.16;5090875;27;45956;-64
2021/10/16 11:03:28;;;;;;;;;6.00;5.25;;;;;21.08;49.02;101655.06;5088076;27;45231;-64
2021/10/16 11:05:56;;;;;;;;;5.00;3.75;;;;;21.18;49.21;101662.66;5098508;27;45446;-67
2021/10/16 11:08:23;;;;;;;;;4.75;4.75;;;;;21.28;48.81;101661.31;5086723;27;45299;-67
2021/10/16 11:10:58;;;;;;;;;5.00;5.00;;;;;21.39;49.11;101658.19;5086680;27;46250;-67